createdAt,value
2022-12-27T00:03:22.668Z,1010.077
2022-12-27T00:08:25.213Z,1010.163
2022-12-27T00:13:27.806Z,1010.275
2022-12-27T00:18:30.397Z,1010.273
2022-12-27T00:34:45.658Z,1010.515
2022-12-27T00:39:48.322Z,1010.489
2022-12-27T00:44:51.006Z,1010.481
2022-12-27T00:49:53.682Z,1010.38
2022-12-27T00:54:56.315Z,1010.539
2022-12-27T00:59:58.614Z,1010.6
2022-12-27T01:05:01.528Z,1010.69
2022-12-27T01:10:04.680Z,1010.844
2022-12-27T01:15:07.307Z,1010.834
2022-12-27T01:20:09.815Z,1011.036
2022-12-27T01:25:12.429Z,1011.062
2022-12-27T01:30:15.345Z,1011.176
2022-12-27T01:35:18.130Z,1011.147
2022-12-27T01:40:20.802Z,1011.133
2022-12-27T01:50:26.030Z,1011.363
2022-12-27T01:55:28.715Z,1011.391
2022-12-27T02:00:31.408Z,1011.354
2022-12-27T02:05:33.828Z,1011.359
2022-12-27T02:10:36.750Z,1011.406
2022-12-27T02:15:39.459Z,1011.446
2022-12-27T02:20:42.217Z,1011.535
2022-12-27T02:30:51.441Z,1011.547
2022-12-27T02:35:54.693Z,1011.63
2022-12-27T02:40:56.947Z,1011.686
2022-12-27T02:45:59.760Z,1011.695
2022-12-27T02:51:02.426Z,1011.777
2022-12-27T03:01:08.005Z,1011.907
2022-12-27T03:06:34.318Z,1011.757
2022-12-27T03:11:37.449Z,1011.975
2022-12-27T03:27:56.015Z,1011.973
2022-12-27T03:32:58.641Z,1012.076
2022-12-27T03:38:01.403Z,1012.021
2022-12-27T03:43:04.085Z,1011.991
2022-12-27T03:48:06.626Z,1012.058
2022-12-27T03:53:09.534Z,1012.137
2022-12-27T03:58:12.106Z,1012.135
2022-12-27T04:03:14.882Z,1012.177
2022-12-27T04:08:17.403Z,1012.148
2022-12-27T04:13:19.947Z,1012.165
2022-12-27T04:18:22.867Z,1012.152
2022-12-27T04:28:27.855Z,1012.149
2022-12-27T04:33:30.580Z,1012.145
2022-12-27T04:38:33.578Z,1012.129
2022-12-27T04:43:39.095Z,1012.238
2022-12-27T04:48:41.717Z,1012.186
2022-12-27T04:53:44.337Z,1012.257
2022-12-27T04:58:47.543Z,1012.22
2022-12-27T05:03:50.341Z,1012.206
2022-12-27T05:18:59.633Z,1012.115
2022-12-27T05:24:05.559Z,1012.227
2022-12-27T05:29:04.776Z,1012.334
2022-12-27T05:34:08.118Z,1012.351
2022-12-27T05:39:10.596Z,1012.422
2022-12-27T05:44:16.164Z,1012.324
2022-12-27T05:49:18.901Z,1012.514
2022-12-27T05:54:24.189Z,1012.499
2022-12-27T05:59:26.880Z,1012.543
2022-12-27T06:04:29.637Z,1012.674
2022-12-27T06:09:32.205Z,1012.707
2022-12-27T06:19:37.345Z,1012.77
2022-12-27T06:24:40.954Z,1012.769
2022-12-27T06:29:44.634Z,1012.861
2022-12-27T06:34:47.203Z,1012.943
2022-12-27T06:39:50.817Z,1012.985
2022-12-27T06:44:53.768Z,1012.946
2022-12-27T06:49:56.699Z,1013.034
2022-12-27T06:54:59.757Z,1013.02
2022-12-27T07:00:02.528Z,1013.021
2022-12-27T07:05:05.124Z,1013.105
2022-12-27T07:10:10.178Z,1013.184
2022-12-27T07:15:12.815Z,1013.221
2022-12-27T07:20:23.208Z,1013.361
2022-12-27T07:25:25.912Z,1013.433
2022-12-27T07:30:28.676Z,1013.432
2022-12-27T07:35:31.636Z,1013.51
2022-12-27T07:40:37.589Z,1013.596
2022-12-27T07:45:40.507Z,1013.613
2022-12-27T07:50:43.653Z,1013.715
2022-12-27T07:55:46.255Z,1013.72
2022-12-27T08:00:49.445Z,1013.778
2022-12-27T08:05:53.777Z,1013.666
2022-12-27T08:10:59.361Z,1013.719
2022-12-27T08:16:01.382Z,1013.821
2022-12-27T08:21:04.013Z,1013.771
2022-12-27T08:26:06.485Z,1013.834
2022-12-27T08:31:09.894Z,1013.943
2022-12-27T08:41:15.060Z,1013.985
2022-12-27T08:46:17.975Z,1013.975
2022-12-27T08:51:31.626Z,1014.078
2022-12-27T08:56:22.897Z,1014.085
2022-12-27T09:06:28.385Z,1014.222
2022-12-27T09:11:30.708Z,1014.146
2022-12-27T09:16:33.405Z,1014.126
2022-12-27T09:21:36.339Z,1014.217
2022-12-27T09:26:38.687Z,1014.19
2022-12-27T09:31:41.494Z,1014.054
2022-12-27T09:36:43.938Z,1014.137
2022-12-27T09:46:51.469Z,1014.397
2022-12-27T09:51:54.320Z,1014.325
2022-12-27T09:57:21.020Z,1014.398
2022-12-27T10:02:00.305Z,1014.337
2022-12-27T10:07:02.948Z,1014.044
2022-12-27T10:12:05.543Z,1014.113
2022-12-27T10:17:08.591Z,1014.294
2022-12-27T10:22:11.256Z,1014.112
2022-12-27T10:27:13.570Z,1014.333
2022-12-27T10:32:16.276Z,1014.268
2022-12-27T10:37:18.975Z,1014.46
2022-12-27T10:42:21.512Z,1014.671
2022-12-27T10:47:24.345Z,1014.643
2022-12-27T10:52:27.134Z,1014.664
2022-12-27T10:57:30.165Z,1014.587
2022-12-27T11:07:35.758Z,1014.723
2022-12-27T11:12:42.937Z,1014.791
2022-12-27T11:17:45.858Z,1014.811
2022-12-27T11:22:48.506Z,1014.953
2022-12-27T11:27:51.067Z,1014.784
2022-12-27T11:32:53.620Z,1014.851
2022-12-27T11:37:56.594Z,1015.033
2022-12-27T11:42:59.067Z,1015.044
2022-12-27T11:48:01.706Z,1014.995
2022-12-27T11:53:04.479Z,1015.094
2022-12-27T11:58:07.256Z,1014.973
2022-12-27T12:03:09.787Z,1014.951
2022-12-27T12:08:12.433Z,1014.772
2022-12-27T12:13:15.223Z,1014.835
2022-12-27T12:18:18.155Z,1014.931
2022-12-27T12:23:21.020Z,1014.945
2022-12-27T12:28:56.098Z,1015.116
2022-12-27T12:33:26.189Z,1015.028
2022-12-27T12:38:29.017Z,1015.129
2022-12-27T12:48:34.423Z,1015.079
2022-12-27T12:53:37.110Z,1015.171
2022-12-27T13:03:42.660Z,1015.255
2022-12-27T13:08:45.538Z,1015.258
2022-12-27T13:13:48.042Z,1015.391
2022-12-27T13:18:50.548Z,1015.327
2022-12-27T13:23:53.219Z,1015.463
2022-12-27T13:28:55.991Z,1015.43
2022-12-27T13:33:58.621Z,1015.435
2022-12-27T13:44:07.785Z,1015.462
2022-12-27T13:49:10.470Z,1015.62
2022-12-27T13:54:12.961Z,1015.568
2022-12-27T13:59:15.548Z,1015.557
2022-12-27T14:04:18.146Z,1015.62
2022-12-27T14:09:26.444Z,1015.696
2022-12-27T14:14:29.320Z,1015.719
2022-12-27T14:19:32.033Z,1015.808
2022-12-27T14:24:37.499Z,1015.823
2022-12-27T14:29:40.143Z,1015.896
2022-12-27T14:34:43.021Z,1015.848
2022-12-27T14:39:45.524Z,1016.033
2022-12-27T14:44:47.831Z,1015.904
2022-12-27T14:49:50.611Z,1016.039
2022-12-27T14:54:53.464Z,1015.96
2022-12-27T15:10:01.836Z,1016.095
2022-12-27T15:15:04.374Z,1016.183
2022-12-27T15:20:06.937Z,1016.279
2022-12-27T15:25:09.441Z,1016.282
2022-12-27T15:30:12.075Z,1016.222
2022-12-27T15:35:17.705Z,1016.165
2022-12-27T15:40:20.523Z,1016.147
2022-12-27T15:45:22.999Z,1016.101
2022-12-27T15:50:25.875Z,1016.087
2022-12-27T15:55:28.687Z,1016.07
2022-12-27T16:00:33.800Z,1016.12
2022-12-27T16:05:33.629Z,1016.03
2022-12-27T16:10:36.134Z,1016.081
2022-12-27T16:15:38.905Z,1016.065
2022-12-27T16:20:41.293Z,1016.078
2022-12-27T16:25:44.430Z,1016.094
2022-12-27T16:30:46.725Z,1016.166
2022-12-27T16:35:49.505Z,1016.231
2022-12-27T16:40:51.804Z,1016.24
2022-12-27T16:50:57.485Z,1016.233
2022-12-27T17:01:02.725Z,1016.274
2022-12-27T17:06:31.079Z,1016.231
2022-12-27T17:11:09.385Z,1016.165
2022-12-27T17:16:11.846Z,1016.206
2022-12-27T17:21:14.719Z,1016.282
2022-12-27T17:26:17.518Z,1016.282
2022-12-27T17:31:20.353Z,1016.284
2022-12-27T17:36:23.384Z,1016.353
2022-12-27T17:41:26.178Z,1016.286
2022-12-27T17:46:29.231Z,1016.312
2022-12-27T17:51:31.579Z,1016.253
2022-12-27T17:56:34.144Z,1016.315
2022-12-27T18:01:36.807Z,1016.315
2022-12-27T18:11:42.288Z,1016.296
2022-12-27T18:16:45.078Z,1016.299
2022-12-27T18:21:47.774Z,1016.26
2022-12-27T18:26:50.537Z,1016.223
2022-12-27T18:31:53.570Z,1016.221
2022-12-27T18:36:56.108Z,1016.103
2022-12-27T18:41:58.784Z,1016.055
2022-12-27T18:47:01.267Z,1016.111
2022-12-27T18:52:03.715Z,1016.127
2022-12-27T18:57:06.287Z,1016.14
2022-12-27T19:02:09.038Z,1016.094
2022-12-27T19:07:11.549Z,1016.059
2022-12-27T19:12:14.248Z,1016.056
2022-12-27T19:17:16.706Z,1016.12
2022-12-27T19:22:19.386Z,1016.06
2022-12-27T19:27:21.824Z,1015.977
2022-12-27T19:32:24.911Z,1015.921
2022-12-27T19:37:27.877Z,1015.955
2022-12-27T19:42:30.862Z,1016.019
2022-12-27T19:47:33.490Z,1016.077
2022-12-27T19:52:36.087Z,1016.036
2022-12-27T19:57:38.533Z,1016.012
2022-12-27T20:02:41.071Z,1015.883
2022-12-27T20:07:43.598Z,1015.872
2022-12-27T20:12:46.408Z,1015.842
2022-12-27T20:17:49.232Z,1015.768
2022-12-27T20:22:51.526Z,1015.76
2022-12-27T20:27:54.847Z,1015.782
2022-12-27T20:32:57.580Z,1015.698
2022-12-27T20:38:00.478Z,1015.727
2022-12-27T20:43:02.965Z,1015.628
2022-12-27T20:48:05.679Z,1015.667
2022-12-27T20:58:13.893Z,1015.596
2022-12-27T21:03:21.230Z,1015.54
2022-12-27T21:08:24.061Z,1015.527
2022-12-27T21:13:26.685Z,1015.465
2022-12-27T21:23:31.975Z,1015.293
2022-12-27T21:28:34.900Z,1015.314
2022-12-27T21:33:37.711Z,1015.318
2022-12-27T21:38:40.277Z,1015.281
2022-12-27T21:43:42.950Z,1015.263
2022-12-27T21:48:45.586Z,1015.266
2022-12-27T21:53:48.307Z,1015.287
2022-12-27T21:58:51.389Z,1015.207
2022-12-27T22:03:54.282Z,1015.229
2022-12-27T22:08:57.486Z,1015.103
2022-12-27T22:14:00.467Z,1015.022
2022-12-27T22:19:03.088Z,1014.998
2022-12-27T22:29:08.330Z,1014.862
2022-12-27T22:34:11.036Z,1014.703
2022-12-27T22:39:13.570Z,1014.732
2022-12-27T22:49:19.338Z,1014.766
2022-12-27T22:55:03.854Z,1014.749
2022-12-27T22:59:24.773Z,1014.6
2022-12-27T23:04:27.470Z,1014.447
2022-12-27T23:15:33.198Z,1014.278
2022-12-27T23:20:36.158Z,1014.388
2022-12-27T23:25:38.892Z,1014.281
2022-12-27T23:35:50.248Z,1014.163
2022-12-27T23:40:52.896Z,1014.021
2022-12-27T23:45:55.584Z,1013.952
2022-12-27T23:50:58.466Z,1013.898
2022-12-27T23:56:01.215Z,1013.97
